Terminal Aerodrome Forecast
Issued by NWS Charleston, WV

Current Version | Previous Version | Graphics & Text | Print | Product List | Glossary On
Versions: 1 2 3 4 5 6 7 8 9 10 11 12 13 14 15 16 17 18 19 20 21 22 23 24 25 26 27 28 29 30 31 32 33
000
FTUS41 KRLX 191500 AAC
TAFCRW
TAF AMD
KCRW 191512Z 1915/2012 00000KT 1 1/2SM RA BR FEW001 BKN004 OVC045
      TEMPO 1916/1918 4SM -RA BKN001 BKN004 OVC045
     FM191800 15006KT 5SM SHRA BR SCT001 BKN007 OVC045
     FM192000 17008KT 5SM -SHRA SCT007 OVC045
     FM192100 18008KT P6SM OVC045
     FM200900 00000KT 4SM BR BKN030=

USA.gov is the U.S. government's official web portal to all federal, state and local government web resources and services.